| Date | Time | Temp. (oF) | Dew Point (oF) | Rel. Hum. (%) | Press. (in.) | Wind Dir. | Wind Speed (mph) | Hourly Rainfall (in.) |
|
|---|---|---|---|---|---|---|---|---|---|
| 1 | 11/17 | 00:00 | 60 | 45 | 59 | 29.56 | SSW | 8 | 0.00 |
| 2 | 11/16 | 23:00 | 59 | 45 | 61 | 29.58 | S | 9 | 0.04 |
| 3 | 11/16 | 22:00 | 57 | 43 | 61 | 29.61 | S | 10 | 0.05 |
| 4 | 11/16 | 21:00 | 57 | 46 | 69 | 29.66 | SSW | 7 | 0.01 |
| 5 | 11/16 | 20:00 | 56 | 49 | 80 | 29.70 | S | 6 | 0.00 |
| 6 | 11/16 | 19:00 | 54 | 51 | 90 | 29.72 | S | 14 | 0.00 |
| 7 | 11/16 | 18:00 | 54 | 50 | 87 | 29.76 | SSW | 7 | 0.01 |
| 8 | 11/16 | 17:00 | 53 | 46 | 79 | 29.80 | SE | 7 | 0.00 |
| 9 | 11/16 | 16:00 | 52 | 39 | 62 | 29.84 | SSE | 3 | 0.00 |
| 10 | 11/16 | 15:00 | 51 | 38 | 62 | 29.85 | S | 7 | 0.03 |
| 11 | 11/16 | 14:00 | 51 | 37 | 59 | 29.89 | ESE | 7 | 0.03 |
| 12 | 11/16 | 13:00 | 51 | 36 | 58 | 29.92 | ESE | 3 | 0.02 |
| 13 | 11/16 | 12:00 | 51 | 37 | 59 | 29.95 | SE | 4 | 0.05 |
| 14 | 11/16 | 11:00 | 51 | 35 | 55 | 30.00 | SSE | 2 | 0.02 |
| 15 | 11/16 | 10:00 | 50 | 34 | 55 | 30.01 | SSE | 3 | 0.01 |
| 16 | 11/16 | 09:00 | 48 | 34 | 59 | 30.05 | S | 1 | 0.02 |
| 17 | 11/16 | 08:00 | 47 | 34 | 61 | 30.01 | E | 3 | 0.00 |
| 18 | 11/16 | 07:00 | 46 | 35 | 66 | 30.03 | NE | 1 | 0.00 |
| 19 | 11/16 | 06:00 | 45 | 35 | 68 | 30.03 | SE | 1 | 0.00 |
| 20 | 11/16 | 05:00 | 46 | 36 | 70 | 30.04 | SSW | 1 | 0.00 |
| 21 | 11/16 | 04:00 | 46 | 37 | 71 | 30.03 | NW | 1 | 0.01 |
| 22 | 11/16 | 03:00 | 46 | 37 | 72 | 30.02 | ESE | 0 | 0.00 |
| 23 | 11/16 | 02:00 | 45 | 39 | 80 | 30.03 | ENE | 1 | 0.04 |
| 24 | 11/16 | 01:00 | 45 | 41 | 87 | 30.06 | SW | 3 | 0.00 |